Time;durP1;ratioP1;P1;durP2;ratioP2;P2;SDS_P1;SDS_P2;PMS_P1;PMS_P2;Temp;Humidity;BMP_temperature;BMP_pressure;BME280_temperature;BME280_humidity;BME280_pressure;Samples;Min_cycle;Max_cycle;Signal;HPM_P1;HPM_P2
2021/07/07 00:06:27;;;;;;;0.30;0.10;;;22.50;99.90;;;;;;20780816;22;20321;-69
2021/07/07 00:16:31;;;;;;;0.57;0.30;;;22.30;99.90;;;;;;20739825;28;20227;-69
2021/07/07 00:26:36;;;;;;;0.50;0.20;;;22.00;99.90;;;;;;20739552;28;20226;-69
2021/07/07 00:36:39;;;;;;;0.50;0.43;;;22.30;99.90;;;;;;20737972;28;20313;-69
2021/07/07 00:46:45;;;;;;;0.23;0.23;;;22.40;99.90;;;;;;20737089;28;20306;-67
2021/07/07 00:56:51;;;;;;;0.53;0.27;;;22.30;99.90;;;;;;20736292;28;20762;-67
2021/07/07 01:06:56;;;;;;;0.30;0.20;;;22.10;99.90;;;;;;20737054;28;20231;-67
2021/07/07 01:16:59;;;;;;;0.20;0.00;;;22.10;99.90;;;;;;20736421;28;20257;-69
2021/07/07 01:27:05;;;;;;;0.20;0.10;;;21.80;99.90;;;;;;20736726;28;20210;-69
2021/07/07 01:37:08;;;;;;;0.20;0.10;;;21.80;99.90;;;;;;20734865;28;20329;-68
2021/07/07 01:47:13;;;;;;;0.20;0.10;;;22.00;99.90;;;;;;20735114;28;20282;-69
2021/07/07 01:57:17;;;;;;;0.40;0.30;;;22.00;99.90;;;;;;20734562;28;20227;-68
2021/07/07 02:07:22;;;;;;;1.23;0.80;;;22.30;99.90;;;;;;20734507;28;20272;-68
2021/07/07 02:17:26;;;;;;;0.20;0.10;;;22.40;99.90;;;;;;20734442;28;20286;-68
2021/07/07 02:27:31;;;;;;;0.33;0.10;;;22.30;99.90;;;;;;20745653;28;20231;-66
2021/07/07 02:37:34;;;;;;;0.57;0.57;;;22.20;99.90;;;;;;20744708;28;20187;-69
2021/07/07 02:47:39;;;;;;;0.30;0.20;;;22.30;99.90;;;;;;20745577;28;20203;-67
2021/07/07 02:57:59;;;;;;;0.43;0.43;;;22.40;99.90;;;;;;20746351;28;20218;-67
2021/07/07 03:08:05;;;;;;;0.30;0.30;;;22.30;99.90;;;;;;20746357;28;20234;-66
2021/07/07 03:18:09;;;;;;;0.37;0.37;;;22.20;99.90;;;;;;20744614;28;20209;-68
2021/07/07 03:28:15;;;;;;;0.50;0.50;;;22.30;99.90;;;;;;20742745;28;20625;-68
2021/07/07 03:38:18;;;;;;;0.50;0.30;;;22.60;99.90;;;;;;20741910;28;20285;-68
2021/07/07 03:48:23;;;;;;;0.40;0.40;;;22.60;99.90;;;;;;20742422;28;20322;-68
2021/07/07 03:58:27;;;;;;;0.67;0.60;;;22.60;99.90;;;;;;20741372;28;20226;-67
2021/07/07 04:08:33;;;;;;;0.20;0.10;;;22.60;99.90;;;;;;20741887;28;20239;-68
2021/07/07 04:18:36;;;;;;;0.63;0.63;;;22.50;99.90;;;;;;20739727;28;20199;-69
2021/07/07 04:28:42;;;;;;;0.20;0.00;;;22.60;99.90;;;;;;20737568;28;20218;-68
2021/07/07 04:38:45;;;;;;;1.07;0.30;;;22.70;99.90;;;;;;20736424;28;20283;-69
2021/07/07 04:48:51;;;;;;;1.00;0.73;;;22.80;99.90;;;;;;20736419;28;20296;-67
2021/07/07 04:58:55;;;;;;;1.70;0.57;;;23.00;99.90;;;;;;20736836;28;20702;-67
2021/07/07 05:09:00;;;;;;;0.40;0.20;;;22.70;99.90;;;;;;20736742;28;20231;-70
2021/07/07 05:19:07;;;;;;;2.47;0.73;;;23.00;99.90;;;;;;20735097;28;20217;-70
2021/07/07 05:29:13;;;;;;;0.22;0.15;;;23.30;99.90;;;;;;20735562;28;20254;-69
2021/07/07 05:39:17;;;;;;;1.10;0.40;;;23.40;99.90;;;;;;20734617;28;20293;-69
2021/07/07 05:49:33;;;;;;;1.30;0.47;;;23.70;99.90;;;;;;20733892;28;20222;-69
2021/07/07 05:59:37;;;;;;;0.28;0.28;;;23.80;99.90;;;;;;20741279;28;20620;-71
2021/07/07 06:09:42;;;;;;;0.20;0.20;;;24.40;99.90;;;;;;20742725;28;20313;-69
2021/07/07 06:19:46;;;;;;;0.65;0.60;;;24.80;99.90;;;;;;20747093;28;20199;-70
2021/07/07 06:29:51;;;;;;;0.50;0.45;;;24.90;99.90;;;;;;20746560;28;20277;-72
2021/07/07 06:39:55;;;;;;;0.55;0.55;;;25.10;99.90;;;;;;20743838;28;20225;-68
2021/07/07 06:50:01;;;;;;;0.22;0.22;;;25.10;99.90;;;;;;20742995;28;20229;-68
2021/07/07 07:00:08;;;;;;;0.85;0.40;;;25.30;99.90;;;;;;20742114;28;20222;-67
2021/07/07 07:10:14;;;;;;;0.50;0.30;;;25.90;99.90;;;;;;20740454;28;20267;-68
2021/07/07 07:20:19;;;;;;;0.28;0.28;;;25.80;99.90;;;;;;20721581;28;20195;-67
2021/07/07 07:30:26;;;;;;;0.40;0.30;;;25.60;99.90;;;;;;20737505;28;20214;-68
2021/07/07 07:40:36;;;;;;;1.95;0.30;;;26.00;99.90;;;;;;20739329;28;20596;-67
2021/07/07 07:50:41;;;;;;;1.40;0.45;;;26.20;99.90;;;;;;20717368;28;20222;-69
2021/07/07 08:00:46;;;;;;;0.63;0.40;;;25.90;99.90;;;;;;20739085;28;20261;-69
2021/07/07 08:10:51;;;;;;;0.65;0.40;;;26.30;99.90;;;;;;20699905;28;20292;-65
2021/07/07 08:20:54;;;;;;;0.50;0.43;;;26.40;99.90;;;;;;20736239;28;20199;-66
2021/07/07 08:31:01;;;;;;;0.20;0.10;;;26.50;99.90;;;;;;20678639;28;20736;-71
2021/07/07 08:41:06;;;;;;;0.68;0.52;;;27.00;99.90;;;;;;20734349;28;20187;-67
2021/07/07 08:51:12;;;;;;;0.55;0.47;;;26.10;99.90;;;;;;20734285;28;20268;-66
2021/07/07 09:01:15;;;;;;;0.73;0.50;;;26.50;99.90;;;;;;20734886;28;20497;-68
2021/07/07 09:11:23;;;;;;;1.30;0.40;;;26.50;99.90;;;;;;20733813;28;20269;-67
2021/07/07 09:21:29;;;;;;;0.98;0.55;;;26.60;99.90;;;;;;20733608;28;20203;-68
2021/07/07 09:31:37;;;;;;;0.70;0.30;;;26.80;99.90;;;;;;20736072;28;20308;-66
2021/07/07 09:41:42;;;;;;;0.68;0.40;;;26.80;99.90;;;;;;20749525;28;20195;-68
2021/07/07 09:51:50;;;;;;;0.20;0.13;;;26.60;99.90;;;;;;20748267;28;20226;-71
2021/07/07 10:01:54;;;;;;;1.33;0.80;;;25.90;99.90;;;;;;20747639;28;20337;-67
2021/07/07 10:12:01;;;;;;;0.20;0.10;;;26.20;99.90;;;;;;20745974;28;20337;-68
2021/07/07 10:22:05;;;;;;;1.35;0.93;;;25.60;99.90;;;;;;20747837;28;20199;-69
2021/07/07 10:32:10;;;;;;;0.30;0.30;;;26.10;99.90;;;;;;20746210;28;20214;-68
2021/07/07 10:42:15;;;;;;;0.25;0.17;;;26.50;99.90;;;;;;20743821;28;20206;-69
2021/07/07 10:52:35;;;;;;;1.65;0.40;;;26.60;99.90;;;;;;20727018;28;20231;-67
2021/07/07 11:02:39;;;;;;;0.45;0.28;;;26.40;99.90;;;;;;20742659;28;20326;-69
2021/07/07 11:13:18;;;;;;;0.85;0.52;;;26.30;99.90;;;;;;20742476;28;20240;-68
2021/07/07 11:23:22;;;;;;;0.30;0.28;;;26.80;99.90;;;;;;20738726;28;20676;-68
2021/07/07 11:33:28;;;;;;;1.25;0.93;;;26.70;99.90;;;;;;20737829;28;20222;-68
2021/07/07 11:43:33;;;;;;;2.10;0.55;;;26.80;99.90;;;;;;20740725;28;20202;-68
2021/07/07 11:53:40;;;;;;;0.63;0.30;;;26.60;99.90;;;;;;20738406;28;20329;-69
2021/07/07 12:03:52;;;;;;;0.40;0.30;;;26.20;99.90;;;;;;20736152;28;20235;-67
2021/07/07 12:13:58;;;;;;;0.70;0.40;;;26.60;99.90;;;;;;20737514;28;20598;-68
2021/07/07 12:24:04;;;;;;;0.22;0.22;;;26.90;99.90;;;;;;20737762;28;20285;-67
2021/07/07 12:34:11;;;;;;;1.02;0.75;;;27.30;99.90;;;;;;20737513;28;20228;-66
2021/07/07 12:44:23;;;;;;;0.40;0.10;;;27.60;99.90;;;;;;20736209;28;20199;-67
2021/07/07 12:54:28;;;;;;;0.65;0.40;;;26.90;99.90;;;;;;20734880;28;20224;-68
2021/07/07 13:04:32;;;;;;;1.17;0.43;;;27.50;99.90;;;;;;20734196;28;20310;-68
2021/07/07 13:14:38;;;;;;;0.50;0.15;;;28.30;99.90;;;;;;20731972;28;20250;-69
2021/07/07 13:24:43;;;;;;;0.55;0.47;;;27.50;99.90;;;;;;20723698;28;20246;-67
2021/07/07 13:34:50;;;;;;;0.30;0.20;;;28.10;99.90;;;;;;20732159;28;20227;-66
2021/07/07 13:44:55;;;;;;;0.57;0.35;;;30.60;99.90;;;;;;20731819;28;20628;-67
2021/07/07 13:55:02;;;;;;;1.40;0.52;;;30.00;99.90;;;;;;20729990;28;20227;-67
2021/07/07 14:05:07;;;;;;;0.73;0.17;;;30.30;99.90;;;;;;20729701;28;20550;-68
2021/07/07 14:15:13;;;;;;;0.52;0.30;;;29.10;99.90;;;;;;20729980;28;20233;-68
2021/07/07 14:25:18;;;;;;;0.20;0.15;;;33.10;99.90;;;;;;20743272;28;20556;-66
2021/07/07 14:35:23;;;;;;;0.52;0.45;;;33.70;99.90;;;;;;20740908;28;20620;-68
2021/07/07 14:45:27;;;;;;;1.05;1.02;;;34.50;99.90;;;;;;20741580;28;20301;-67
2021/07/07 14:55:32;;;;;;;0.95;0.45;;;34.20;99.90;;;;;;20740429;28;20393;-67
2021/07/07 15:05:35;;;;;;;0.40;0.30;;;34.90;99.90;;;;;;20740265;28;20576;-67
2021/07/07 15:15:40;;;;;;;0.50;0.40;;;35.30;99.90;;;;;;20738921;28;20240;-66
2021/07/07 15:25:44;;;;;;;1.45;0.95;;;35.60;99.90;;;;;;20738431;28;20277;-62
2021/07/07 15:35:49;;;;;;;0.32;0.22;;;34.40;99.90;;;;;;20734657;28;20317;-63
2021/07/07 15:45:53;;;;;;;2.55;0.90;;;35.00;99.90;;;;;;20737033;28;20227;-66
2021/07/07 15:56:00;;;;;;;0.95;0.82;;;34.60;99.90;;;;;;20735826;28;20226;-66
2021/07/07 16:06:04;;;;;;;0.82;0.82;;;34.70;99.90;;;;;;20735244;28;20623;-65
2021/07/07 16:16:29;;;;;;;0.68;0.68;;;34.60;99.90;;;;;;20687549;28;20692;-66
2021/07/07 16:26:33;;;;;;;1.95;1.17;;;34.60;99.90;;;;;;20657384;28;20184;-67
2021/07/07 16:36:38;;;;;;;4.20;0.60;;;34.60;99.90;;;;;;20705703;28;20249;-66
2021/07/07 16:46:42;;;;;;;0.43;0.40;;;34.20;99.90;;;;;;20730683;28;20199;-67
2021/07/07 16:56:47;;;;;;;3.13;2.55;;;34.10;99.90;;;;;;20731753;28;20313;-65
2021/07/07 17:06:52;;;;;;;2.83;0.65;;;33.80;99.90;;;;;;20729519;28;20237;-66
2021/07/07 17:16:57;;;;;;;0.90;0.90;;;33.90;99.90;;;;;;20729039;28;20280;-67
2021/07/07 17:27:00;;;;;;;1.23;0.77;;;33.60;99.90;;;;;;20732203;28;20202;-67
2021/07/07 17:37:05;;;;;;;0.30;0.30;;;33.10;99.90;;;;;;20728787;28;20316;-67
2021/07/07 17:47:10;;;;;;;0.45;0.40;;;31.70;99.90;;;;;;20728202;28;20201;-67
2021/07/07 17:57:15;;;;;;;0.32;0.30;;;29.80;99.90;;;;;;20739383;28;20218;-68
2021/07/07 18:07:18;;;;;;;1.05;0.65;;;31.60;99.90;;;;;;20663263;28;20586;-68
2021/07/07 18:17:26;;;;;;;0.40;0.40;;;30.60;99.90;;;;;;20662456;28;20226;-69
2021/07/07 18:27:29;;;;;;;0.40;0.20;;;27.70;99.90;;;;;;20678681;28;20660;-69
2021/07/07 18:37:35;;;;;;;3.38;0.98;;;27.50;99.90;;;;;;20721398;28;20333;-68
2021/07/07 18:47:38;;;;;;;0.40;0.40;;;29.40;99.90;;;;;;20741864;28;20202;-70
2021/07/07 18:57:43;;;;;;;1.10;0.82;;;28.50;99.90;;;;;;20739705;28;20305;-66
2021/07/07 19:07:52;;;;;;;0.70;0.45;;;27.30;99.90;;;;;;20737344;28;20626;-68
2021/07/07 19:17:57;;;;;;;2.10;1.40;;;26.20;99.90;;;;;;20739400;28;20222;-67
2021/07/07 19:28:02;;;;;;;1.27;0.85;;;25.70;99.90;;;;;;20739454;28;20710;-69
2021/07/07 19:38:08;;;;;;;0.28;0.25;;;25.50;99.90;;;;;;20737610;28;20222;-66
2021/07/07 19:48:11;;;;;;;0.43;0.43;;;25.20;99.90;;;;;;20737709;28;20199;-67
2021/07/07 19:58:17;;;;;;;1.15;0.70;;;25.30;99.90;;;;;;20737279;28;20227;-67
2021/07/07 20:08:20;;;;;;;0.93;0.60;;;25.30;99.90;;;;;;20737308;28;20234;-68
2021/07/07 20:18:25;;;;;;;0.90;0.57;;;25.30;99.90;;;;;;20739150;28;20230;-67
2021/07/07 20:28:29;;;;;;;0.60;0.60;;;25.00;99.90;;;;;;20739170;28;20194;-67
2021/07/07 20:38:34;;;;;;;0.57;0.57;;;24.70;99.90;;;;;;20736992;28;20547;-67
2021/07/07 20:48:38;;;;;;;1.45;0.35;;;24.70;99.90;;;;;;20735899;28;20678;-67
2021/07/07 20:58:43;;;;;;;4.38;1.20;;;24.30;99.90;;;;;;20735565;28;20226;-68
2021/07/07 21:08:49;;;;;;;0.60;0.47;;;24.30;99.90;;;;;;20734471;28;20226;-68
2021/07/07 21:18:54;;;;;;;0.40;0.28;;;24.60;99.90;;;;;;20735840;28;20231;-67
2021/07/07 21:28:58;;;;;;;4.03;0.73;;;24.80;99.90;;;;;;20734350;28;20230;-69
2021/07/07 21:39:04;;;;;;;7.13;1.05;;;24.80;99.90;;;;;;20726795;28;20234;-67
2021/07/07 21:49:08;;;;;;;0.52;0.52;;;24.10;99.90;;;;;;20652456;28;20245;-67
2021/07/07 21:59:13;;;;;;;0.47;0.30;;;23.80;99.90;;;;;;20652850;28;20223;-67
2021/07/07 22:09:17;;;;;;;0.60;0.33;;;23.50;99.90;;;;;;20733575;28;20305;-67
2021/07/07 22:19:23;;;;;;;1.23;0.50;;;23.30;99.90;;;;;;20733252;28;20558;-68
2021/07/07 22:29:26;;;;;;;0.30;0.30;;;23.20;99.90;;;;;;20732656;28;20679;-69
2021/07/07 22:39:31;;;;;;;1.03;0.20;;;23.00;99.90;;;;;;20735867;28;20229;-68
2021/07/07 22:49:37;;;;;;;0.30;0.30;;;22.90;99.90;;;;;;20746408;28;20195;-67
2021/07/07 22:59:42;;;;;;;2.90;0.93;;;22.90;99.90;;;;;;20742869;28;20325;-68
2021/07/07 23:09:45;;;;;;;0.63;0.50;;;22.80;99.90;;;;;;20729359;28;20435;-66
2021/07/07 23:19:50;;;;;;;0.53;0.53;;;22.60;99.90;;;;;;20725425;28;20337;-67
2021/07/07 23:29:56;;;;;;;0.27;0.10;;;22.70;99.90;;;;;;20743778;28;20205;-67
2021/07/07 23:40:01;;;;;;;0.30;0.10;;;22.70;99.90;;;;;;20741957;28;20226;-68
2021/07/07 23:50:09;;;;;;;0.50;0.40;;;22.60;99.90;;;;;;20742781;28;20207;-67
